sensor_id;sensor_type;location;lat;lon;timestamp;temperature;humidity
16999;DHT22;10211;49.476;11.010;2023-04-25T00:01:15;8.50;99.90
16999;DHT22;10211;49.476;11.010;2023-04-25T00:03:42;8.50;99.90
16999;DHT22;10211;49.476;11.010;2023-04-25T00:06:10;8.60;99.90
16999;DHT22;10211;49.476;11.010;2023-04-25T00:08:37;8.50;99.90
16999;DHT22;10211;49.476;11.010;2023-04-25T00:11:04;8.50;99.90
16999;DHT22;10211;49.476;11.010;2023-04-25T00:13:30;8.60;99.90
16999;DHT22;10211;49.476;11.010;2023-04-25T00:15:57;8.50;99.90
16999;DHT22;10211;49.476;11.010;2023-04-25T00:18:25;8.60;99.90
16999;DHT22;10211;49.476;11.010;2023-04-25T00:20:54;8.60;99.90
16999;DHT22;10211;49.476;11.010;2023-04-25T00:23:22;8.60;99.90
16999;DHT22;10211;49.476;11.010;2023-04-25T00:25:50;8.60;99.90
16999;DHT22;10211;49.476;11.010;2023-04-25T00:28:17;8.60;99.90
16999;DHT22;10211;49.476;11.010;2023-04-25T00:30:43;8.60;99.90
16999;DHT22;10211;49.476;11.010;2023-04-25T00:33:10;8.70;99.90
16999;DHT22;10211;49.476;11.010;2023-04-25T00:35:37;8.60;99.90
16999;DHT22;10211;49.476;11.010;2023-04-25T00:38:04;8.60;99.90
16999;DHT22;10211;49.476;11.010;2023-04-25T00:40:32;8.60;99.90
16999;DHT22;10211;49.476;11.010;2023-04-25T00:42:59;8.70;99.90
16999;DHT22;10211;49.476;11.010;2023-04-25T00:45:28;8.60;99.90
16999;DHT22;10211;49.476;11.010;2023-04-25T00:47:56;8.60;99.90
16999;DHT22;10211;49.476;11.010;2023-04-25T00:50:23;8.60;99.90
16999;DHT22;10211;49.476;11.010;2023-04-25T00:52:50;8.60;99.90
16999;DHT22;10211;49.476;11.010;2023-04-25T00:55:17;8.60;99.90
16999;DHT22;10211;49.476;11.010;2023-04-25T00:57:45;8.60;99.90
16999;DHT22;10211;49.476;11.010;2023-04-25T01:00:12;8.60;99.90
16999;DHT22;10211;49.476;11.010;2023-04-25T01:02:40;8.60;99.90
16999;DHT22;10211;49.476;11.010;2023-04-25T01:05:08;8.60;99.90
16999;DHT22;10211;49.476;11.010;2023-04-25T01:07:34;8.60;99.90
16999;DHT22;10211;49.476;11.010;2023-04-25T01:10:02;8.60;99.90
16999;DHT22;10211;49.476;11.010;2023-04-25T01:12:29;8.60;99.90
16999;DHT22;10211;49.476;11.010;2023-04-25T01:14:57;8.60;99.90
16999;DHT22;10211;49.476;11.010;2023-04-25T01:17:24;8.60;99.90
16999;DHT22;10211;49.476;11.010;2023-04-25T01:19:52;8.50;99.90
16999;DHT22;10211;49.476;11.010;2023-04-25T01:22:21;8.50;99.90
16999;DHT22;10211;49.476;11.010;2023-04-25T01:24:48;8.50;99.90
16999;DHT22;10211;49.476;11.010;2023-04-25T01:27:15;8.50;99.90
16999;DHT22;10211;49.476;11.010;2023-04-25T01:29:42;8.40;99.90
16999;DHT22;10211;49.476;11.010;2023-04-25T01:32:09;8.50;99.90
16999;DHT22;10211;49.476;11.010;2023-04-25T01:34:36;8.50;99.90
16999;DHT22;10211;49.476;11.010;2023-04-25T01:37:03;8.40;99.90
16999;DHT22;10211;49.476;11.010;2023-04-25T01:39:31;8.40;99.90
16999;DHT22;10211;49.476;11.010;2023-04-25T01:41:59;8.30;99.90
16999;DHT22;10211;49.476;11.010;2023-04-25T01:44:26;8.30;99.90
16999;DHT22;10211;49.476;11.010;2023-04-25T01:46:52;8.30;99.90
16999;DHT22;10211;49.476;11.010;2023-04-25T01:49:19;8.30;99.90
16999;DHT22;10211;49.476;11.010;2023-04-25T01:51:46;8.30;99.90
16999;DHT22;10211;49.476;11.010;2023-04-25T01:54:13;8.20;99.90
16999;DHT22;10211;49.476;11.010;2023-04-25T01:56:41;8.20;99.90
16999;DHT22;10211;49.476;11.010;2023-04-25T01:59:08;8.20;99.90
16999;DHT22;10211;49.476;11.010;2023-04-25T02:01:34;8.20;99.90
16999;DHT22;10211;49.476;11.010;2023-04-25T02:04:01;8.20;99.90
16999;DHT22;10211;49.476;11.010;2023-04-25T02:06:28;8.20;99.90
16999;DHT22;10211;49.476;11.010;2023-04-25T02:08:56;8.20;99.90
16999;DHT22;10211;49.476;11.010;2023-04-25T02:11:23;8.20;99.90
16999;DHT22;10211;49.476;11.010;2023-04-25T02:13:51;8.10;99.90
16999;DHT22;10211;49.476;11.010;2023-04-25T02:16:17;8.00;99.90
16999;DHT22;10211;49.476;11.010;2023-04-25T02:18:44;8.00;99.90
16999;DHT22;10211;49.476;11.010;2023-04-25T02:21:11;7.90;99.90
16999;DHT22;10211;49.476;11.010;2023-04-25T02:23:38;7.90;99.90
16999;DHT22;10211;49.476;11.010;2023-04-25T02:26:05;7.90;99.90
16999;DHT22;10211;49.476;11.010;2023-04-25T02:28:32;7.80;99.90
16999;DHT22;10211;49.476;11.010;2023-04-25T02:31:00;7.90;99.90
16999;DHT22;10211;49.476;11.010;2023-04-25T02:33:26;7.80;99.90
16999;DHT22;10211;49.476;11.010;2023-04-25T02:35:53;7.80;99.90
16999;DHT22;10211;49.476;11.010;2023-04-25T02:38:20;7.80;99.90
16999;DHT22;10211;49.476;11.010;2023-04-25T02:40:46;7.70;99.90
16999;DHT22;10211;49.476;11.010;2023-04-25T02:43:13;7.70;99.90
16999;DHT22;10211;49.476;11.010;2023-04-25T02:45:41;7.70;99.90
16999;DHT22;10211;49.476;11.010;2023-04-25T02:48:09;7.70;99.90
16999;DHT22;10211;49.476;11.010;2023-04-25T02:50:36;7.70;99.90
16999;DHT22;10211;49.476;11.010;2023-04-25T02:53:02;7.70;99.90
16999;DHT22;10211;49.476;11.010;2023-04-25T02:55:29;7.70;99.90
16999;DHT22;10211;49.476;11.010;2023-04-25T02:57:56;7.70;99.90
16999;DHT22;10211;49.476;11.010;2023-04-25T03:00:22;7.70;99.90
16999;DHT22;10211;49.476;11.010;2023-04-25T03:02:50;7.80;99.90
16999;DHT22;10211;49.476;11.010;2023-04-25T03:05:18;7.80;99.90
16999;DHT22;10211;49.476;11.010;2023-04-25T03:07:45;7.80;99.90
16999;DHT22;10211;49.476;11.010;2023-04-25T03:10:12;7.90;99.90
16999;DHT22;10211;49.476;11.010;2023-04-25T03:12:38;7.90;99.90
16999;DHT22;10211;49.476;11.010;2023-04-25T03:15:06;7.90;99.90
16999;DHT22;10211;49.476;11.010;2023-04-25T03:17:33;7.80;99.90
16999;DHT22;10211;49.476;11.010;2023-04-25T03:19:59;7.80;99.90
16999;DHT22;10211;49.476;11.010;2023-04-25T03:22:27;7.80;99.90
16999;DHT22;10211;49.476;11.010;2023-04-25T03:24:54;7.70;99.90
16999;DHT22;10211;49.476;11.010;2023-04-25T03:27:21;7.60;99.90
16999;DHT22;10211;49.476;11.010;2023-04-25T03:29:47;7.60;99.90
16999;DHT22;10211;49.476;11.010;2023-04-25T03:32:14;7.50;99.90
16999;DHT22;10211;49.476;11.010;2023-04-25T03:34:41;7.50;99.90
16999;DHT22;10211;49.476;11.010;2023-04-25T03:37:07;7.40;99.90
16999;DHT22;10211;49.476;11.010;2023-04-25T03:39:35;7.40;99.90
16999;DHT22;10211;49.476;11.010;2023-04-25T03:42:03;7.30;99.90
16999;DHT22;10211;49.476;11.010;2023-04-25T03:44:29;7.30;99.90
16999;DHT22;10211;49.476;11.010;2023-04-25T03:46:56;7.20;99.90
16999;DHT22;10211;49.476;11.010;2023-04-25T03:49:24;7.20;99.90
16999;DHT22;10211;49.476;11.010;2023-04-25T03:51:51;7.10;99.90
16999;DHT22;10211;49.476;11.010;2023-04-25T03:54:17;7.10;99.90
16999;DHT22;10211;49.476;11.010;2023-04-25T03:56:45;7.10;99.90
16999;DHT22;10211;49.476;11.010;2023-04-25T03:59:14;7.20;99.90
16999;DHT22;10211;49.476;11.010;2023-04-25T04:01:40;7.20;99.90
16999;DHT22;10211;49.476;11.010;2023-04-25T04:04:07;7.30;99.90
16999;DHT22;10211;49.476;11.010;2023-04-25T04:06:34;7.40;99.90
16999;DHT22;10211;49.476;11.010;2023-04-25T04:09:01;7.40;99.90
16999;DHT22;10211;49.476;11.010;2023-04-25T04:11:28;7.50;99.90
16999;DHT22;10211;49.476;11.010;2023-04-25T04:13:58;7.60;99.90
16999;DHT22;10211;49.476;11.010;2023-04-25T04:16:24;7.60;99.90
16999;DHT22;10211;49.476;11.010;2023-04-25T04:18:51;7.70;99.90
16999;DHT22;10211;49.476;11.010;2023-04-25T04:21:18;7.70;99.90
16999;DHT22;10211;49.476;11.010;2023-04-25T04:23:44;7.80;99.90
16999;DHT22;10211;49.476;11.010;2023-04-25T04:26:11;7.80;99.90
16999;DHT22;10211;49.476;11.010;2023-04-25T04:28:38;7.80;99.90
16999;DHT22;10211;49.476;11.010;2023-04-25T04:31:06;7.90;99.90
16999;DHT22;10211;49.476;11.010;2023-04-25T04:33:34;7.90;99.90
16999;DHT22;10211;49.476;11.010;2023-04-25T04:36:02;7.90;99.90
16999;DHT22;10211;49.476;11.010;2023-04-25T04:38:29;8.00;99.90
16999;DHT22;10211;49.476;11.010;2023-04-25T04:40:56;7.90;99.90
16999;DHT22;10211;49.476;11.010;2023-04-25T04:43:23;7.90;99.90
16999;DHT22;10211;49.476;11.010;2023-04-25T04:45:49;7.90;99.90
16999;DHT22;10211;49.476;11.010;2023-04-25T04:48:17;7.90;99.90
16999;DHT22;10211;49.476;11.010;2023-04-25T04:50:44;7.90;99.90
16999;DHT22;10211;49.476;11.010;2023-04-25T04:53:11;7.90;99.90
16999;DHT22;10211;49.476;11.010;2023-04-25T04:55:38;7.80;99.90
16999;DHT22;10211;49.476;11.010;2023-04-25T04:58:06;7.80;99.90
16999;DHT22;10211;49.476;11.010;2023-04-25T05:00:33;7.80;99.90
16999;DHT22;10211;49.476;11.010;2023-04-25T05:03:00;7.80;99.90
16999;DHT22;10211;49.476;11.010;2023-04-25T05:05:28;7.80;99.90
16999;DHT22;10211;49.476;11.010;2023-04-25T05:07:54;7.80;99.90
16999;DHT22;10211;49.476;11.010;2023-04-25T05:10:21;7.90;99.90
16999;DHT22;10211;49.476;11.010;2023-04-25T05:12:48;7.90;99.90
16999;DHT22;10211;49.476;11.010;2023-04-25T05:15:14;7.90;99.90
16999;DHT22;10211;49.476;11.010;2023-04-25T05:17:41;7.80;99.90
16999;DHT22;10211;49.476;11.010;2023-04-25T05:20:09;7.90;99.90
16999;DHT22;10211;49.476;11.010;2023-04-25T05:22:37;7.90;99.90
16999;DHT22;10211;49.476;11.010;2023-04-25T05:25:04;8.00;99.90
16999;DHT22;10211;49.476;11.010;2023-04-25T05:27:32;8.00;99.90
16999;DHT22;10211;49.476;11.010;2023-04-25T05:29:59;8.00;99.90
16999;DHT22;10211;49.476;11.010;2023-04-25T05:32:26;8.00;99.90
16999;DHT22;10211;49.476;11.010;2023-04-25T05:34:53;8.10;99.90
16999;DHT22;10211;49.476;11.010;2023-04-25T05:37:19;8.10;99.90
16999;DHT22;10211;49.476;11.010;2023-04-25T05:39:47;8.20;99.90
16999;DHT22;10211;49.476;11.010;2023-04-25T05:42:14;8.20;99.90
16999;DHT22;10211;49.476;11.010;2023-04-25T05:44:41;8.20;99.90
16999;DHT22;10211;49.476;11.010;2023-04-25T05:47:08;8.20;99.90
16999;DHT22;10211;49.476;11.010;2023-04-25T05:49:34;8.10;99.90
16999;DHT22;10211;49.476;11.010;2023-04-25T05:52:01;8.10;99.90
16999;DHT22;10211;49.476;11.010;2023-04-25T05:54:28;8.10;99.90
16999;DHT22;10211;49.476;11.010;2023-04-25T05:56:56;8.00;99.90
16999;DHT22;10211;49.476;11.010;2023-04-25T05:59:23;8.00;99.90
16999;DHT22;10211;49.476;11.010;2023-04-25T06:01:49;8.00;99.90
16999;DHT22;10211;49.476;11.010;2023-04-25T06:04:17;8.00;99.90
16999;DHT22;10211;49.476;11.010;2023-04-25T06:06:43;8.00;99.90
16999;DHT22;10211;49.476;11.010;2023-04-25T06:09:10;8.00;99.90
16999;DHT22;10211;49.476;11.010;2023-04-25T06:11:37;7.90;99.90
16999;DHT22;10211;49.476;11.010;2023-04-25T06:14:05;7.90;99.90
16999;DHT22;10211;49.476;11.010;2023-04-25T06:16:32;7.90;99.90
16999;DHT22;10211;49.476;11.010;2023-04-25T06:18:59;7.90;99.90
16999;DHT22;10211;49.476;11.010;2023-04-25T06:21:26;7.90;99.90
16999;DHT22;10211;49.476;11.010;2023-04-25T06:23:52;7.90;99.90
16999;DHT22;10211;49.476;11.010;2023-04-25T06:26:19;7.80;99.90
16999;DHT22;10211;49.476;11.010;2023-04-25T06:28:46;7.80;99.90
16999;DHT22;10211;49.476;11.010;2023-04-25T06:31:14;7.80;99.90
16999;DHT22;10211;49.476;11.010;2023-04-25T06:33:40;7.80;99.90
16999;DHT22;10211;49.476;11.010;2023-04-25T06:36:07;7.90;99.90
16999;DHT22;10211;49.476;11.010;2023-04-25T06:38:34;7.90;99.90
16999;DHT22;10211;49.476;11.010;2023-04-25T06:41:01;7.90;99.90
16999;DHT22;10211;49.476;11.010;2023-04-25T06:43:28;8.00;99.90
16999;DHT22;10211;49.476;11.010;2023-04-25T06:45:58;8.10;99.90
16999;DHT22;10211;49.476;11.010;2023-04-25T06:48:26;8.20;99.90
16999;DHT22;10211;49.476;11.010;2023-04-25T06:50:53;8.30;99.90
16999;DHT22;10211;49.476;11.010;2023-04-25T06:53:20;8.60;99.90
16999;DHT22;10211;49.476;11.010;2023-04-25T06:55:47;8.80;99.90
16999;DHT22;10211;49.476;11.010;2023-04-25T06:58:13;8.90;99.90
16999;DHT22;10211;49.476;11.010;2023-04-25T07:00:40;9.20;99.90
16999;DHT22;10211;49.476;11.010;2023-04-25T07:03:07;9.50;99.90
16999;DHT22;10211;49.476;11.010;2023-04-25T07:05:35;9.70;99.90
16999;DHT22;10211;49.476;11.010;2023-04-25T07:08:02;9.90;99.90
16999;DHT22;10211;49.476;11.010;2023-04-25T07:10:29;10.00;99.90
16999;DHT22;10211;49.476;11.010;2023-04-25T07:12:56;10.00;99.90
16999;DHT22;10211;49.476;11.010;2023-04-25T07:15:22;9.90;99.90
16999;DHT22;10211;49.476;11.010;2023-04-25T07:17:49;9.70;99.90
16999;DHT22;10211;49.476;11.010;2023-04-25T07:20:16;9.40;99.90
16999;DHT22;10211;49.476;11.010;2023-04-25T07:22:44;9.10;99.90
16999;DHT22;10211;49.476;11.010;2023-04-25T07:25:11;8.90;99.90
16999;DHT22;10211;49.476;11.010;2023-04-25T07:27:38;8.70;99.90
16999;DHT22;10211;49.476;11.010;2023-04-25T07:30:06;8.50;99.90
16999;DHT22;10211;49.476;11.010;2023-04-25T07:32:33;8.40;99.90
16999;DHT22;10211;49.476;11.010;2023-04-25T07:35:00;8.30;99.90
16999;DHT22;10211;49.476;11.010;2023-04-25T07:37:27;8.30;99.90
16999;DHT22;10211;49.476;11.010;2023-04-25T07:39:55;8.30;99.90
16999;DHT22;10211;49.476;11.010;2023-04-25T07:42:21;8.30;99.90
16999;DHT22;10211;49.476;11.010;2023-04-25T07:44:48;8.20;99.90
16999;DHT22;10211;49.476;11.010;2023-04-25T07:47:15;8.30;99.90
16999;DHT22;10211;49.476;11.010;2023-04-25T07:49:44;8.20;99.90
16999;DHT22;10211;49.476;11.010;2023-04-25T07:52:11;8.20;99.90
16999;DHT22;10211;49.476;11.010;2023-04-25T07:54:38;8.20;99.90
16999;DHT22;10211;49.476;11.010;2023-04-25T07:57:06;8.10;99.90
16999;DHT22;10211;49.476;11.010;2023-04-25T07:59:33;7.90;99.90
16999;DHT22;10211;49.476;11.010;2023-04-25T08:02:00;7.80;99.90
16999;DHT22;10211;49.476;11.010;2023-04-25T08:04:28;7.50;99.90
16999;DHT22;10211;49.476;11.010;2023-04-25T08:06:54;7.40;99.90
16999;DHT22;10211;49.476;11.010;2023-04-25T08:09:21;7.50;99.90
16999;DHT22;10211;49.476;11.010;2023-04-25T08:11:48;7.60;99.90
16999;DHT22;10211;49.476;11.010;2023-04-25T08:14:16;7.80;99.90
16999;DHT22;10211;49.476;11.010;2023-04-25T08:16:43;8.00;99.90
16999;DHT22;10211;49.476;11.010;2023-04-25T08:19:10;8.30;99.90
16999;DHT22;10211;49.476;11.010;2023-04-25T08:21:37;8.60;99.90
16999;DHT22;10211;49.476;11.010;2023-04-25T08:24:04;8.90;99.90
16999;DHT22;10211;49.476;11.010;2023-04-25T08:26:31;9.50;99.90
16999;DHT22;10211;49.476;11.010;2023-04-25T08:28:58;10.10;99.90
16999;DHT22;10211;49.476;11.010;2023-04-25T08:31:26;10.80;99.90
16999;DHT22;10211;49.476;11.010;2023-04-25T08:33:53;11.10;99.90
16999;DHT22;10211;49.476;11.010;2023-04-25T08:36:19;11.10;99.90
16999;DHT22;10211;49.476;11.010;2023-04-25T08:38:46;11.10;99.90
16999;DHT22;10211;49.476;11.010;2023-04-25T08:41:13;11.50;99.90
16999;DHT22;10211;49.476;11.010;2023-04-25T08:43:42;11.60;99.90
16999;DHT22;10211;49.476;11.010;2023-04-25T08:46:09;11.70;99.90
16999;DHT22;10211;49.476;11.010;2023-04-25T08:48:40;11.80;99.90
16999;DHT22;10211;49.476;11.010;2023-04-25T08:51:10;11.90;99.90
16999;DHT22;10211;49.476;11.010;2023-04-25T08:53:37;12.10;99.90
16999;DHT22;10211;49.476;11.010;2023-04-25T08:56:08;12.10;99.90
16999;DHT22;10211;49.476;11.010;2023-04-25T08:58:38;11.50;99.90
16999;DHT22;10211;49.476;11.010;2023-04-25T09:01:05;10.80;99.90
16999;DHT22;10211;49.476;11.010;2023-04-25T09:03:32;10.30;99.90
16999;DHT22;10211;49.476;11.010;2023-04-25T09:06:00;9.80;99.90
16999;DHT22;10211;49.476;11.010;2023-04-25T09:08:27;9.40;99.90
16999;DHT22;10211;49.476;11.010;2023-04-25T09:10:54;9.10;99.90
16999;DHT22;10211;49.476;11.010;2023-04-25T09:13:26;8.90;99.90
16999;DHT22;10211;49.476;11.010;2023-04-25T09:15:54;9.00;99.90
16999;DHT22;10211;49.476;11.010;2023-04-25T09:18:24;9.20;99.90
16999;DHT22;10211;49.476;11.010;2023-04-25T09:20:52;9.80;99.90
16999;DHT22;10211;49.476;11.010;2023-04-25T09:23:21;10.50;99.90
16999;DHT22;10211;49.476;11.010;2023-04-25T09:25:49;11.60;99.90
16999;DHT22;10211;49.476;11.010;2023-04-25T09:28:16;13.10;99.90
16999;DHT22;10211;49.476;11.010;2023-04-25T09:30:49;14.60;99.90
16999;DHT22;10211;49.476;11.010;2023-04-25T09:33:15;15.90;96.50
16999;DHT22;10211;49.476;11.010;2023-04-25T09:35:43;16.40;92.90
16999;DHT22;10211;49.476;11.010;2023-04-25T09:38:12;17.10;90.30
16999;DHT22;10211;49.476;11.010;2023-04-25T09:40:41;17.60;84.80
16999;DHT22;10211;49.476;11.010;2023-04-25T09:43:18;17.60;82.20
16999;DHT22;10211;49.476;11.010;2023-04-25T09:45:45;17.50;81.00
16999;DHT22;10211;49.476;11.010;2023-04-25T09:48:17;18.80;78.90
16999;DHT22;10211;49.476;11.010;2023-04-25T09:50:45;20.70;73.10
16999;DHT22;10211;49.476;11.010;2023-04-25T09:53:12;22.20;68.50
16999;DHT22;10211;49.476;11.010;2023-04-25T09:55:41;24.10;62.20
16999;DHT22;10211;49.476;11.010;2023-04-25T09:58:10;23.50;58.50
16999;DHT22;10211;49.476;11.010;2023-04-25T10:00:38;21.00;63.20
16999;DHT22;10211;49.476;11.010;2023-04-25T10:03:05;19.80;66.00
16999;DHT22;10211;49.476;11.010;2023-04-25T10:05:34;20.10;68.70
16999;DHT22;10211;49.476;11.010;2023-04-25T10:08:03;20.30;66.70
16999;DHT22;10211;49.476;11.010;2023-04-25T10:10:30;21.10;64.60
16999;DHT22;10211;49.476;11.010;2023-04-25T10:13:04;22.00;62.90
16999;DHT22;10211;49.476;11.010;2023-04-25T10:15:34;23.80;59.70
16999;DHT22;10211;49.476;11.010;2023-04-25T10:18:02;25.10;57.30
16999;DHT22;10211;49.476;11.010;2023-04-25T10:20:29;26.90;53.50
16999;DHT22;10211;49.476;11.010;2023-04-25T10:23:01;26.10;52.60
16999;DHT22;10211;49.476;11.010;2023-04-25T10:25:30;24.60;53.60
16999;DHT22;10211;49.476;11.010;2023-04-25T10:27:59;23.40;54.20
16999;DHT22;10211;49.476;11.010;2023-04-25T10:30:27;22.70;52.40
16999;DHT22;10211;49.476;11.010;2023-04-25T10:32:55;20.40;55.40
16999;DHT22;10211;49.476;11.010;2023-04-25T10:35:25;18.70;59.50
16999;DHT22;10211;49.476;11.010;2023-04-25T10:37:59;17.30;62.10
16999;DHT22;10211;49.476;11.010;2023-04-25T10:40:27;16.70;64.00
16999;DHT22;10211;49.476;11.010;2023-04-25T10:42:54;15.80;66.80
16999;DHT22;10211;49.476;11.010;2023-04-25T10:45:21;16.50;65.60
16999;DHT22;10211;49.476;11.010;2023-04-25T10:47:49;20.00;59.10
16999;DHT22;10211;49.476;11.010;2023-04-25T10:50:16;23.60;53.60
16999;DHT22;10211;49.476;11.010;2023-04-25T10:52:43;26.90;48.40
16999;DHT22;10211;49.476;11.010;2023-04-25T10:55:11;27.70;44.50
16999;DHT22;10211;49.476;11.010;2023-04-25T10:57:40;28.40;44.20
16999;DHT22;10211;49.476;11.010;2023-04-25T11:00:11;29.60;42.50
16999;DHT22;10211;49.476;11.010;2023-04-25T11:02:43;29.80;40.80
16999;DHT22;10211;49.476;11.010;2023-04-25T11:05:19;28.80;41.50
16999;DHT22;10211;49.476;11.010;2023-04-25T11:07:50;28.40;41.50
16999;DHT22;10211;49.476;11.010;2023-04-25T11:10:17;26.60;43.80
16999;DHT22;10211;49.476;11.010;2023-04-25T11:12:45;25.50;45.20
16999;DHT22;10211;49.476;11.010;2023-04-25T11:15:12;23.30;47.10
16999;DHT22;10211;49.476;11.010;2023-04-25T11:17:39;21.50;51.20
16999;DHT22;10211;49.476;11.010;2023-04-25T11:20:07;19.80;54.20
16999;DHT22;10211;49.476;11.010;2023-04-25T11:22:39;18.60;57.20
16999;DHT22;10211;49.476;11.010;2023-04-25T11:25:08;17.40;59.00
16999;DHT22;10211;49.476;11.010;2023-04-25T11:27:38;16.50;59.60
16999;DHT22;10211;49.476;11.010;2023-04-25T11:30:13;15.80;60.80
16999;DHT22;10211;49.476;11.010;2023-04-25T11:32:40;15.40;62.20
16999;DHT22;10211;49.476;11.010;2023-04-25T11:35:08;15.80;63.00
16999;DHT22;10211;49.476;11.010;2023-04-25T11:37:35;16.70;61.70
16999;DHT22;10211;49.476;11.010;2023-04-25T11:40:04;16.90;61.00
16999;DHT22;10211;49.476;11.010;2023-04-25T11:42:33;17.40;61.10
16999;DHT22;10211;49.476;11.010;2023-04-25T11:45:00;18.70;59.30
16999;DHT22;10211;49.476;11.010;2023-04-25T11:47:30;18.20;58.10
16999;DHT22;10211;49.476;11.010;2023-04-25T11:49:58;18.80;57.80
16999;DHT22;10211;49.476;11.010;2023-04-25T11:52:38;21.20;54.50
16999;DHT22;10211;49.476;11.010;2023-04-25T11:55:09;23.00;49.20
16999;DHT22;10211;49.476;11.010;2023-04-25T11:57:37;23.50;49.50
16999;DHT22;10211;49.476;11.010;2023-04-25T12:00:11;23.70;47.60
16999;DHT22;10211;49.476;11.010;2023-04-25T12:02:42;24.20;46.90
16999;DHT22;10211;49.476;11.010;2023-04-25T12:05:10;24.00;47.30
16999;DHT22;10211;49.476;11.010;2023-04-25T12:07:37;23.30;47.70
16999;DHT22;10211;49.476;11.010;2023-04-25T12:10:05;22.30;49.00
16999;DHT22;10211;49.476;11.010;2023-04-25T12:12:35;21.70;50.70
16999;DHT22;10211;49.476;11.010;2023-04-25T12:15:09;21.20;51.30
16999;DHT22;10211;49.476;11.010;2023-04-25T12:17:36;21.50;51.60
16999;DHT22;10211;49.476;11.010;2023-04-25T12:20:07;20.70;52.00
16999;DHT22;10211;49.476;11.010;2023-04-25T12:22:34;19.90;53.90
16999;DHT22;10211;49.476;11.010;2023-04-25T12:25:01;18.60;54.40
16999;DHT22;10211;49.476;11.010;2023-04-25T12:27:31;17.50;55.80
16999;DHT22;10211;49.476;11.010;2023-04-25T12:29:59;17.00;57.80
16999;DHT22;10211;49.476;11.010;2023-04-25T12:32:27;16.90;57.80
16999;DHT22;10211;49.476;11.010;2023-04-25T12:34:53;16.80;58.70
16999;DHT22;10211;49.476;11.010;2023-04-25T12:37:20;16.70;58.30
16999;DHT22;10211;49.476;11.010;2023-04-25T12:39:47;16.60;58.70
16999;DHT22;10211;49.476;11.010;2023-04-25T12:42:13;16.40;59.20
16999;DHT22;10211;49.476;11.010;2023-04-25T12:44:40;16.00;60.30
16999;DHT22;10211;49.476;11.010;2023-04-25T12:47:08;15.90;61.70
16999;DHT22;10211;49.476;11.010;2023-04-25T12:49:35;15.90;62.50
16999;DHT22;10211;49.476;11.010;2023-04-25T12:52:02;15.80;63.30
16999;DHT22;10211;49.476;11.010;2023-04-25T12:54:28;15.40;63.00
16999;DHT22;10211;49.476;11.010;2023-04-25T12:56:56;15.10;63.70
16999;DHT22;10211;49.476;11.010;2023-04-25T12:59:23;15.30;64.40
16999;DHT22;10211;49.476;11.010;2023-04-25T13:01:50;16.10;63.40
16999;DHT22;10211;49.476;11.010;2023-04-25T13:04:18;16.80;63.00
16999;DHT22;10211;49.476;11.010;2023-04-25T13:06:46;17.30;60.80
16999;DHT22;10211;49.476;11.010;2023-04-25T13:09:13;17.00;59.90
16999;DHT22;10211;49.476;11.010;2023-04-25T13:11:40;16.80;60.60
16999;DHT22;10211;49.476;11.010;2023-04-25T13:14:07;16.70;60.60
16999;DHT22;10211;49.476;11.010;2023-04-25T13:16:34;16.30;59.70
16999;DHT22;10211;49.476;11.010;2023-04-25T13:19:00;16.10;61.40
16999;DHT22;10211;49.476;11.010;2023-04-25T13:21:30;15.80;61.70
16999;DHT22;10211;49.476;11.010;2023-04-25T13:23:57;15.80;60.70
16999;DHT22;10211;49.476;11.010;2023-04-25T13:26:24;15.40;60.90
16999;DHT22;10211;49.476;11.010;2023-04-25T13:28:51;15.00;62.00
16999;DHT22;10211;49.476;11.010;2023-04-25T13:31:17;14.90;64.40
16999;DHT22;10211;49.476;11.010;2023-04-25T13:33:44;14.90;64.20
16999;DHT22;10211;49.476;11.010;2023-04-25T13:36:11;15.10;64.30
16999;DHT22;10211;49.476;11.010;2023-04-25T13:38:39;15.10;64.10
16999;DHT22;10211;49.476;11.010;2023-04-25T13:41:09;14.70;65.00
16999;DHT22;10211;49.476;11.010;2023-04-25T13:43:36;14.20;65.90
16999;DHT22;10211;49.476;11.010;2023-04-25T13:46:03;13.60;67.10
16999;DHT22;10211;49.476;11.010;2023-04-25T13:48:30;13.20;68.60
16999;DHT22;10211;49.476;11.010;2023-04-25T13:50:56;12.70;69.60
16999;DHT22;10211;49.476;11.010;2023-04-25T13:53:23;12.50;70.40
16999;DHT22;10211;49.476;11.010;2023-04-25T13:55:51;12.20;71.00
16999;DHT22;10211;49.476;11.010;2023-04-25T13:58:19;12.10;72.10
16999;DHT22;10211;49.476;11.010;2023-04-25T14:00:46;12.10;72.00
16999;DHT22;10211;49.476;11.010;2023-04-25T14:03:12;12.20;72.20
16999;DHT22;10211;49.476;11.010;2023-04-25T14:05:39;12.40;72.10
16999;DHT22;10211;49.476;11.010;2023-04-25T14:08:07;12.80;72.00
16999;DHT22;10211;49.476;11.010;2023-04-25T14:10:34;13.00;71.40
16999;DHT22;10211;49.476;11.010;2023-04-25T14:13:03;13.20;71.00
16999;DHT22;10211;49.476;11.010;2023-04-25T14:15:30;13.40;70.20
16999;DHT22;10211;49.476;11.010;2023-04-25T14:17:57;13.50;70.90
16999;DHT22;10211;49.476;11.010;2023-04-25T14:20:24;13.50;70.30
16999;DHT22;10211;49.476;11.010;2023-04-25T14:22:51;13.30;70.20
16999;DHT22;10211;49.476;11.010;2023-04-25T14:25:19;13.00;71.10
16999;DHT22;10211;49.476;11.010;2023-04-25T14:27:46;12.80;72.00
16999;DHT22;10211;49.476;11.010;2023-04-25T14:30:16;12.50;72.50
16999;DHT22;10211;49.476;11.010;2023-04-25T14:32:43;12.30;73.30
16999;DHT22;10211;49.476;11.010;2023-04-25T14:35:10;12.00;74.20
16999;DHT22;10211;49.476;11.010;2023-04-25T14:37:37;11.80;75.80
16999;DHT22;10211;49.476;11.010;2023-04-25T14:40:05;11.60;76.10
16999;DHT22;10211;49.476;11.010;2023-04-25T14:42:34;11.50;76.70
16999;DHT22;10211;49.476;11.010;2023-04-25T14:45:01;11.40;77.60
16999;DHT22;10211;49.476;11.010;2023-04-25T14:47:29;11.40;78.50
16999;DHT22;10211;49.476;11.010;2023-04-25T14:49:56;11.40;78.40
16999;DHT22;10211;49.476;11.010;2023-04-25T14:52:22;11.40;78.40
16999;DHT22;10211;49.476;11.010;2023-04-25T14:54:49;11.50;78.50
16999;DHT22;10211;49.476;11.010;2023-04-25T14:57:16;11.50;78.40
16999;DHT22;10211;49.476;11.010;2023-04-25T14:59:43;11.40;78.30
16999;DHT22;10211;49.476;11.010;2023-04-25T15:02:10;11.40;78.00
16999;DHT22;10211;49.476;11.010;2023-04-25T15:04:38;11.20;77.70
16999;DHT22;10211;49.476;11.010;2023-04-25T15:07:05;11.60;77.90
16999;DHT22;10211;49.476;11.010;2023-04-25T15:09:32;11.70;77.20
16999;DHT22;10211;49.476;11.010;2023-04-25T15:11:58;11.90;77.60
16999;DHT22;10211;49.476;11.010;2023-04-25T15:14:26;12.10;76.50
16999;DHT22;10211;49.476;11.010;2023-04-25T15:16:52;12.20;76.90
16999;DHT22;10211;49.476;11.010;2023-04-25T15:19:20;12.20;75.80
16999;DHT22;10211;49.476;11.010;2023-04-25T15:21:48;12.20;76.00
16999;DHT22;10211;49.476;11.010;2023-04-25T15:24:15;12.10;76.60
16999;DHT22;10211;49.476;11.010;2023-04-25T15:26:42;11.80;77.20